sensor_id;sensor_type;location;lat;lon;timestamp;pressure;altitude;pressure_sealevel;temperature;humidity
85113;BME280;75461;51.556;9.946;2024-02-04T00:00:47;100294.28;;;8.97;100.00
85113;BME280;75461;51.556;9.946;2024-02-04T00:03:13;100290.59;;;9.01;100.00
85113;BME280;75461;51.556;9.946;2024-02-04T00:05:38;100287.84;;;9.03;100.00
85113;BME280;75461;51.556;9.946;2024-02-04T00:08:03;100281.69;;;9.04;100.00
85113;BME280;75461;51.556;9.946;2024-02-04T00:10:29;100286.25;;;9.00;100.00
85113;BME280;75461;51.556;9.946;2024-02-04T00:12:54;100285.53;;;8.98;100.00
85113;BME280;75461;51.556;9.946;2024-02-04T00:15:20;100297.34;;;8.90;100.00
85113;BME280;75461;51.556;9.946;2024-02-04T00:17:45;100311.63;;;8.84;100.00
85113;BME280;75461;51.556;9.946;2024-02-04T00:20:11;100309.84;;;8.84;100.00
85113;BME280;75461;51.556;9.946;2024-02-04T00:22:36;100301.59;;;8.76;100.00
85113;BME280;75461;51.556;9.946;2024-02-04T00:25:02;100290.47;;;8.73;100.00
85113;BME280;75461;51.556;9.946;2024-02-04T00:27:33;100300.00;;;8.74;100.00
85113;BME280;75461;51.556;9.946;2024-02-04T00:29:59;100302.63;;;8.74;100.00
85113;BME280;75461;51.556;9.946;2024-02-04T00:32:25;100299.81;;;8.77;100.00
85113;BME280;75461;51.556;9.946;2024-02-04T00:34:51;100307.84;;;8.74;100.00
85113;BME280;75461;51.556;9.946;2024-02-04T00:37:17;100303.09;;;8.80;100.00
85113;BME280;75461;51.556;9.946;2024-02-04T00:39:42;100262.44;;;8.75;100.00
85113;BME280;75461;51.556;9.946;2024-02-04T00:42:07;100269.44;;;8.74;100.00
85113;BME280;75461;51.556;9.946;2024-02-04T00:44:33;100281.84;;;8.71;100.00
85113;BME280;75461;51.556;9.946;2024-02-04T00:46:58;100289.03;;;8.67;100.00
85113;BME280;75461;51.556;9.946;2024-02-04T00:49:24;100282.03;;;8.68;100.00
85113;BME280;75461;51.556;9.946;2024-02-04T00:51:51;100282.88;;;8.68;100.00
85113;BME280;75461;51.556;9.946;2024-02-04T00:54:17;100284.75;;;8.66;100.00
85113;BME280;75461;51.556;9.946;2024-02-04T00:56:42;100298.00;;;8.63;100.00
85113;BME280;75461;51.556;9.946;2024-02-04T00:59:07;100291.94;;;8.62;100.00
85113;BME280;75461;51.556;9.946;2024-02-04T01:01:33;100284.91;;;8.63;100.00
85113;BME280;75461;51.556;9.946;2024-02-04T01:03:58;100284.66;;;8.68;100.00
85113;BME280;75461;51.556;9.946;2024-02-04T01:06:24;100290.72;;;8.68;100.00
85113;BME280;75461;51.556;9.946;2024-02-04T01:08:50;100289.81;;;8.69;100.00
85113;BME280;75461;51.556;9.946;2024-02-04T01:11:16;100282.81;;;8.70;100.00
85113;BME280;75461;51.556;9.946;2024-02-04T01:13:41;100287.25;;;8.68;100.00
85113;BME280;75461;51.556;9.946;2024-02-04T01:16:07;100279.59;;;8.64;100.00
85113;BME280;75461;51.556;9.946;2024-02-04T01:18:32;100287.53;;;8.63;100.00
85113;BME280;75461;51.556;9.946;2024-02-04T01:20:58;100284.09;;;8.62;100.00
85113;BME280;75461;51.556;9.946;2024-02-04T01:23:25;100290.88;;;8.65;99.71
85113;BME280;75461;51.556;9.946;2024-02-04T01:25:51;100293.50;;;8.65;100.00
85113;BME280;75461;51.556;9.946;2024-02-04T01:28:16;100272.69;;;8.63;100.00
85113;BME280;75461;51.556;9.946;2024-02-04T01:30:42;100272.69;;;8.63;100.00
85113;BME280;75461;51.556;9.946;2024-02-04T01:33:07;100255.88;;;8.68;99.71
85113;BME280;75461;51.556;9.946;2024-02-04T01:35:32;100265.56;;;8.65;99.17
85113;BME280;75461;51.556;9.946;2024-02-04T01:37:58;100261.38;;;8.63;100.00
85113;BME280;75461;51.556;9.946;2024-02-04T01:40:23;100267.34;;;8.65;99.35
85113;BME280;75461;51.556;9.946;2024-02-04T01:42:49;100262.13;;;8.65;100.00
85113;BME280;75461;51.556;9.946;2024-02-04T01:45:14;100262.97;;;8.65;99.81
85113;BME280;75461;51.556;9.946;2024-02-04T01:47:39;100259.44;;;8.67;100.00
85113;BME280;75461;51.556;9.946;2024-02-04T01:50:05;100266.28;;;8.69;100.00
85113;BME280;75461;51.556;9.946;2024-02-04T01:52:33;100254.09;;;8.68;100.00
85113;BME280;75461;51.556;9.946;2024-02-04T01:55:00;100248.22;;;8.64;100.00
85113;BME280;75461;51.556;9.946;2024-02-04T01:57:26;100248.88;;;8.68;99.99
85113;BME280;75461;51.556;9.946;2024-02-04T01:59:52;100243.56;;;8.70;100.00
85113;BME280;75461;51.556;9.946;2024-02-04T02:02:20;100247.97;;;8.69;100.00
85113;BME280;75461;51.556;9.946;2024-02-04T02:04:46;100240.19;;;8.68;100.00
85113;BME280;75461;51.556;9.946;2024-02-04T02:07:12;100224.44;;;8.69;100.00
85113;BME280;75461;51.556;9.946;2024-02-04T02:09:38;100213.97;;;8.69;100.00
85113;BME280;75461;51.556;9.946;2024-02-04T02:14:37;100228.41;;;8.60;100.00
85113;BME280;75461;51.556;9.946;2024-02-04T02:17:09;100224.94;;;8.60;100.00
85113;BME280;75461;51.556;9.946;2024-02-04T02:22:50;100222.50;;;8.57;100.00
85113;BME280;75461;51.556;9.946;2024-02-04T02:25:20;100219.06;;;8.56;100.00
85113;BME280;75461;51.556;9.946;2024-02-04T02:27:47;100212.03;;;8.57;100.00
85113;BME280;75461;51.556;9.946;2024-02-04T02:30:13;100219.31;;;8.52;100.00
85113;BME280;75461;51.556;9.946;2024-02-04T02:32:39;100212.88;;;8.57;100.00
85113;BME280;75461;51.556;9.946;2024-02-04T02:35:04;100203.53;;;8.53;100.00
85113;BME280;75461;51.556;9.946;2024-02-04T02:37:36;100207.06;;;8.52;100.00
85113;BME280;75461;51.556;9.946;2024-02-04T02:40:28;100205.38;;;8.51;100.00
85113;BME280;75461;51.556;9.946;2024-02-04T02:42:55;100200.16;;;8.51;100.00
85113;BME280;75461;51.556;9.946;2024-02-04T02:45:21;100201.75;;;8.54;100.00
85113;BME280;75461;51.556;9.946;2024-02-04T02:47:49;100194.75;;;8.54;100.00
85113;BME280;75461;51.556;9.946;2024-02-04T02:50:15;100200.09;;;8.53;100.00
85113;BME280;75461;51.556;9.946;2024-02-04T02:52:41;100196.88;;;8.48;100.00
85113;BME280;75461;51.556;9.946;2024-02-04T02:55:06;100198.38;;;8.52;100.00
85113;BME280;75461;51.556;9.946;2024-02-04T02:57:32;100196.34;;;8.57;100.00
85113;BME280;75461;51.556;9.946;2024-02-04T02:59:57;100194.59;;;8.57;100.00
85113;BME280;75461;51.556;9.946;2024-02-04T03:02:23;100190.19;;;8.58;100.00
85113;BME280;75461;51.556;9.946;2024-02-04T03:04:48;100198.03;;;8.58;100.00
85113;BME280;75461;51.556;9.946;2024-02-04T03:07:13;100192.81;;;8.58;100.00
85113;BME280;75461;51.556;9.946;2024-02-04T03:09:39;100190.78;;;8.63;100.00
85113;BME280;75461;51.556;9.946;2024-02-04T03:12:04;100183.78;;;8.63;100.00
85113;BME280;75461;51.556;9.946;2024-02-04T03:14:30;100192.28;;;8.67;100.00
85113;BME280;75461;51.556;9.946;2024-02-04T03:16:56;100195.84;;;8.66;100.00
85113;BME280;75461;51.556;9.946;2024-02-04T03:19:21;100191.25;;;8.70;100.00
85113;BME280;75461;51.556;9.946;2024-02-04T03:21:47;100184.16;;;8.72;100.00
85113;BME280;75461;51.556;9.946;2024-02-04T03:24:12;100185.09;;;8.71;100.00
85113;BME280;75461;51.556;9.946;2024-02-04T03:26:38;100185.69;;;8.76;100.00
85113;BME280;75461;51.556;9.946;2024-02-04T03:29:03;100184.75;;;8.77;100.00
85113;BME280;75461;51.556;9.946;2024-02-04T03:31:30;100182.00;;;8.78;100.00
85113;BME280;75461;51.556;9.946;2024-02-04T03:33:56;100176.88;;;8.77;100.00
85113;BME280;75461;51.556;9.946;2024-02-04T03:36:23;100179.31;;;8.80;100.00
85113;BME280;75461;51.556;9.946;2024-02-04T03:38:50;100169.69;;;8.80;100.00
85113;BME280;75461;51.556;9.946;2024-02-04T03:41:15;100165.13;;;8.84;100.00
85113;BME280;75461;51.556;9.946;2024-02-04T03:43:41;100166.19;;;8.96;100.00
85113;BME280;75461;51.556;9.946;2024-02-04T03:46:06;100163.94;;;9.04;100.00
85113;BME280;75461;51.556;9.946;2024-02-04T03:48:31;100157.88;;;9.03;100.00
85113;BME280;75461;51.556;9.946;2024-02-04T03:50:59;100156.09;;;9.04;100.00
85113;BME280;75461;51.556;9.946;2024-02-04T03:53:24;100156.00;;;9.05;100.00
85113;BME280;75461;51.556;9.946;2024-02-04T03:55:50;100166.53;;;9.04;100.00
85113;BME280;75461;51.556;9.946;2024-02-04T03:58:15;100164.59;;;9.07;100.00
85113;BME280;75461;51.556;9.946;2024-02-04T04:00:41;100156.56;;;9.10;100.00
85113;BME280;75461;51.556;9.946;2024-02-04T04:03:06;100161.25;;;9.05;100.00
85113;BME280;75461;51.556;9.946;2024-02-04T04:05:31;100152.38;;;9.08;100.00
85113;BME280;75461;51.556;9.946;2024-02-04T04:07:56;100151.44;;;9.09;100.00
85113;BME280;75461;51.556;9.946;2024-02-04T04:10:22;100156.84;;;9.06;100.00
85113;BME280;75461;51.556;9.946;2024-02-04T04:12:47;100144.59;;;9.06;100.00
85113;BME280;75461;51.556;9.946;2024-02-04T04:15:13;100154.22;;;9.06;100.00
85113;BME280;75461;51.556;9.946;2024-02-04T04:17:38;100161.25;;;9.05;100.00
85113;BME280;75461;51.556;9.946;2024-02-04T04:20:06;100164.03;;;9.02;100.00
85113;BME280;75461;51.556;9.946;2024-02-04T04:22:32;100159.63;;;9.03;100.00
85113;BME280;75461;51.556;9.946;2024-02-04T04:24:57;100160.66;;;9.00;100.00
85113;BME280;75461;51.556;9.946;2024-02-04T04:27:22;100151.13;;;8.99;100.00
85113;BME280;75461;51.556;9.946;2024-02-04T04:29:48;100161.59;;;8.85;100.00
85113;BME280;75461;51.556;9.946;2024-02-04T04:32:13;100166.44;;;8.77;100.00
85113;BME280;75461;51.556;9.946;2024-02-04T04:34:38;100165.78;;;8.73;100.00
85113;BME280;75461;51.556;9.946;2024-02-04T04:37:04;100158.94;;;8.71;100.00
85113;BME280;75461;51.556;9.946;2024-02-04T04:39:29;100147.47;;;8.73;100.00
85113;BME280;75461;51.556;9.946;2024-02-04T04:41:54;100140.44;;;8.74;100.00
85113;BME280;75461;51.556;9.946;2024-02-04T04:44:20;100133.53;;;8.73;100.00
85113;BME280;75461;51.556;9.946;2024-02-04T04:46:45;100135.22;;;8.74;100.00
85113;BME280;75461;51.556;9.946;2024-02-04T04:49:11;100137.00;;;8.73;100.00
85113;BME280;75461;51.556;9.946;2024-02-04T04:51:36;100130.66;;;8.77;100.00
85113;BME280;75461;51.556;9.946;2024-02-04T04:54:01;100129.69;;;8.78;100.00
85113;BME280;75461;51.556;9.946;2024-02-04T04:56:27;100133.19;;;8.79;100.00
85113;BME280;75461;51.556;9.946;2024-02-04T04:58:52;100144.38;;;8.81;100.00
85113;BME280;75461;51.556;9.946;2024-02-04T05:01:17;100137.47;;;8.80;100.00
85113;BME280;75461;51.556;9.946;2024-02-04T05:03:43;100135.03;;;8.77;100.00
85113;BME280;75461;51.556;9.946;2024-02-04T05:06:09;100129.03;;;8.75;100.00
85113;BME280;75461;51.556;9.946;2024-02-04T05:08:34;100131.09;;;8.70;100.00
85113;BME280;75461;51.556;9.946;2024-02-04T05:10:59;100143.44;;;8.68;100.00
85113;BME280;75461;51.556;9.946;2024-02-04T05:13:25;100144.44;;;8.65;100.00
85113;BME280;75461;51.556;9.946;2024-02-04T05:15:50;100164.53;;;8.64;100.00
85113;BME280;75461;51.556;9.946;2024-02-04T05:18:15;100125.13;;;8.68;100.00
85113;BME280;75461;51.556;9.946;2024-02-04T05:20:41;100137.34;;;8.67;100.00
85113;BME280;75461;51.556;9.946;2024-02-04T05:23:08;100129.22;;;8.72;100.00
85113;BME280;75461;51.556;9.946;2024-02-04T05:25:34;100127.47;;;8.72;100.00
85113;BME280;75461;51.556;9.946;2024-02-04T05:27:59;100150.06;;;8.73;100.00
85113;BME280;75461;51.556;9.946;2024-02-04T05:30:24;100135.22;;;8.74;100.00
85113;BME280;75461;51.556;9.946;2024-02-04T05:32:50;100134.38;;;8.73;100.00
85113;BME280;75461;51.556;9.946;2024-02-04T05:35:15;100137.94;;;8.72;100.00
85113;BME280;75461;51.556;9.946;2024-02-04T05:37:41;100142.00;;;8.62;100.00
85113;BME280;75461;51.556;9.946;2024-02-04T05:40:06;100142.19;;;8.59;100.00
85113;BME280;75461;51.556;9.946;2024-02-04T05:42:32;100152.56;;;8.60;100.00
85113;BME280;75461;51.556;9.946;2024-02-04T05:44:58;100157.03;;;8.58;100.00
85113;BME280;75461;51.556;9.946;2024-02-04T05:47:23;100152.91;;;8.54;100.00
85113;BME280;75461;51.556;9.946;2024-02-04T05:49:49;100164.56;;;8.49;100.00
85113;BME280;75461;51.556;9.946;2024-02-04T05:52:15;100179.53;;;8.47;100.00
85113;BME280;75461;51.556;9.946;2024-02-04T05:54:40;100163.91;;;8.45;100.00
85113;BME280;75461;51.556;9.946;2024-02-04T05:57:06;100167.53;;;8.43;100.00
85113;BME280;75461;51.556;9.946;2024-02-04T05:59:32;100159.16;;;8.36;100.00
85113;BME280;75461;51.556;9.946;2024-02-04T06:01:57;100150.50;;;8.35;100.00
85113;BME280;75461;51.556;9.946;2024-02-04T06:04:22;100156.50;;;8.37;100.00
85113;BME280;75461;51.556;9.946;2024-02-04T06:06:48;100160.81;;;8.38;100.00
85113;BME280;75461;51.556;9.946;2024-02-04T06:09:13;100162.63;;;8.36;100.00
85113;BME280;75461;51.556;9.946;2024-02-04T06:11:39;100163.75;;;8.32;100.00
85113;BME280;75461;51.556;9.946;2024-02-04T06:14:04;100174.97;;;8.34;100.00
85113;BME280;75461;51.556;9.946;2024-02-04T06:16:29;100178.31;;;8.36;100.00
85113;BME280;75461;51.556;9.946;2024-02-04T06:18:55;100170.47;;;8.36;100.00
85113;BME280;75461;51.556;9.946;2024-02-04T06:21:22;100154.63;;;8.39;100.00
85113;BME280;75461;51.556;9.946;2024-02-04T06:23:48;100160.81;;;8.38;100.00
85113;BME280;75461;51.556;9.946;2024-02-04T06:26:13;100164.09;;;8.42;100.00
85113;BME280;75461;51.556;9.946;2024-02-04T06:28:38;100163.06;;;8.45;100.00
85113;BME280;75461;51.556;9.946;2024-02-04T06:31:04;100159.44;;;8.47;100.00
85113;BME280;75461;51.556;9.946;2024-02-04T06:33:29;100156.00;;;8.47;100.00
85113;BME280;75461;51.556;9.946;2024-02-04T06:35:55;100149.66;;;8.51;100.00
85113;BME280;75461;51.556;9.946;2024-02-04T06:38:21;100151.16;;;8.55;100.00
85113;BME280;75461;51.556;9.946;2024-02-04T06:40:46;100148.63;;;8.53;100.00
85113;BME280;75461;51.556;9.946;2024-02-04T06:43:12;100132.59;;;8.59;100.00
85113;BME280;75461;51.556;9.946;2024-02-04T06:45:37;100133.91;;;8.67;100.00
85113;BME280;75461;51.556;9.946;2024-02-04T06:48:02;100133.72;;;8.70;100.00
85113;BME280;75461;51.556;9.946;2024-02-04T06:50:28;100125.94;;;8.68;100.00
85113;BME280;75461;51.556;9.946;2024-02-04T06:52:53;100121.47;;;8.70;100.00
85113;BME280;75461;51.556;9.946;2024-02-04T06:55:19;100131.75;;;8.73;100.00
85113;BME280;75461;51.556;9.946;2024-02-04T06:57:44;100125.13;;;8.68;100.00
85113;BME280;75461;51.556;9.946;2024-02-04T07:00:10;100123.25;;;8.70;100.00
85113;BME280;75461;51.556;9.946;2024-02-04T07:02:37;100110.00;;;8.73;100.00
85113;BME280;75461;51.556;9.946;2024-02-04T07:05:03;100105.63;;;8.73;100.00
85113;BME280;75461;51.556;9.946;2024-02-04T07:07:28;100098.78;;;8.71;100.00
85113;BME280;75461;51.556;9.946;2024-02-04T07:09:54;100100.47;;;8.72;100.00
85113;BME280;75461;51.556;9.946;2024-02-04T07:12:19;100109.00;;;8.75;100.00
85113;BME280;75461;51.556;9.946;2024-02-04T07:14:44;100118.75;;;8.72;100.00
85113;BME280;75461;51.556;9.946;2024-02-04T07:17:10;100112.63;;;8.73;100.00
85113;BME280;75461;51.556;9.946;2024-02-04T07:19:37;100119.88;;;8.68;100.00
85113;BME280;75461;51.556;9.946;2024-02-04T07:22:03;100129.34;;;8.70;100.00
85113;BME280;75461;51.556;9.946;2024-02-04T07:24:28;100127.84;;;8.66;100.00
85113;BME280;75461;51.556;9.946;2024-02-04T07:26:53;100140.03;;;8.65;100.00
85113;BME280;75461;51.556;9.946;2024-02-04T07:29:19;100126.78;;;8.69;100.00
85113;BME280;75461;51.556;9.946;2024-02-04T07:31:44;100112.03;;;8.68;100.00
85113;BME280;75461;51.556;9.946;2024-02-04T07:34:10;100110.84;;;8.73;100.00
85113;BME280;75461;51.556;9.946;2024-02-04T07:36:35;100103.19;;;8.70;100.00
85113;BME280;75461;51.556;9.946;2024-02-04T07:39:01;100106.38;;;8.75;100.00
85113;BME280;75461;51.556;9.946;2024-02-04T07:41:30;100098.06;;;8.83;100.00
85113;BME280;75461;51.556;9.946;2024-02-04T07:43:56;100108.41;;;8.84;100.00
85113;BME280;75461;51.556;9.946;2024-02-04T07:46:21;100124.88;;;8.86;100.00
85113;BME280;75461;51.556;9.946;2024-02-04T07:48:47;100123.94;;;8.87;100.00
85113;BME280;75461;51.556;9.946;2024-02-04T07:51:12;100123.28;;;8.84;100.00
85113;BME280;75461;51.556;9.946;2024-02-04T07:53:38;100114.50;;;8.85;100.00
85113;BME280;75461;51.556;9.946;2024-02-04T07:56:03;100113.38;;;8.89;100.00
85113;BME280;75461;51.556;9.946;2024-02-04T07:58:32;100110.78;;;8.89;100.00
85113;BME280;75461;51.556;9.946;2024-02-04T08:00:57;100115.25;;;8.87;100.00
85113;BME280;75461;51.556;9.946;2024-02-04T08:03:23;100114.13;;;8.91;100.00
85113;BME280;75461;51.556;9.946;2024-02-04T08:05:48;100105.25;;;8.94;100.00
85113;BME280;75461;51.556;9.946;2024-02-04T08:08:13;100114.50;;;8.99;100.00
85113;BME280;75461;51.556;9.946;2024-02-04T08:10:39;100116.28;;;8.99;99.86
85113;BME280;75461;51.556;9.946;2024-02-04T08:13:04;100101.25;;;9.02;99.23
85113;BME280;75461;51.556;9.946;2024-02-04T08:15:30;100105.44;;;9.05;98.64
85113;BME280;75461;51.556;9.946;2024-02-04T08:17:55;100092.56;;;9.02;97.75
85113;BME280;75461;51.556;9.946;2024-02-04T08:20:21;100084.50;;;9.05;98.73
85113;BME280;75461;51.556;9.946;2024-02-04T08:22:46;100074.59;;;9.10;97.17
85113;BME280;75461;51.556;9.946;2024-02-04T08:25:12;100088.31;;;9.14;98.05
85113;BME280;75461;51.556;9.946;2024-02-04T08:27:37;100089.66;;;9.21;95.97
85113;BME280;75461;51.556;9.946;2024-02-04T08:30:04;100091.97;;;9.25;95.73
85113;BME280;75461;51.556;9.946;2024-02-04T08:32:30;100088.31;;;9.28;96.81
85113;BME280;75461;51.556;9.946;2024-02-04T08:34:55;100064.00;;;9.26;96.12
85113;BME280;75461;51.556;9.946;2024-02-04T08:37:21;100059.53;;;9.28;96.51
85113;BME280;75461;51.556;9.946;2024-02-04T08:39:46;100049.78;;;9.30;96.81
85113;BME280;75461;51.556;9.946;2024-02-04T08:42:11;100050.53;;;9.32;95.94
85113;BME280;75461;51.556;9.946;2024-02-04T08:44:37;100057.38;;;9.34;97.30
85113;BME280;75461;51.556;9.946;2024-02-04T08:47:02;100053.28;;;9.30;97.13
85113;BME280;75461;51.556;9.946;2024-02-04T08:49:29;100058.41;;;9.32;97.85
85113;BME280;75461;51.556;9.946;2024-02-04T08:51:55;100052.31;;;9.31;96.78
85113;BME280;75461;51.556;9.946;2024-02-04T08:54:20;100048.75;;;9.32;97.96
85113;BME280;75461;51.556;9.946;2024-02-04T08:56:46;100048.94;;;9.29;97.50
85113;BME280;75461;51.556;9.946;2024-02-04T08:59:11;100055.69;;;9.33;96.90
85113;BME280;75461;51.556;9.946;2024-02-04T09:01:37;100066.25;;;9.32;97.75
85113;BME280;75461;51.556;9.946;2024-02-04T09:04:02;100076.81;;;9.16;98.06
85113;BME280;75461;51.556;9.946;2024-02-04T09:06:27;100099.38;;;9.04;100.00
85113;BME280;75461;51.556;9.946;2024-02-04T09:08:53;100094.59;;;8.97;100.00
85113;BME280;75461;51.556;9.946;2024-02-04T09:11:18;100100.56;;;8.84;100.00
85113;BME280;75461;51.556;9.946;2024-02-04T09:13:45;100096.38;;;8.82;100.00
85113;BME280;75461;51.556;9.946;2024-02-04T09:16:11;100094.69;;;8.81;100.00
85113;BME280;75461;51.556;9.946;2024-02-04T09:18:37;100094.88;;;8.78;100.00
85113;BME280;75461;51.556;9.946;2024-02-04T09:21:02;100087.84;;;8.78;100.00
85113;BME280;75461;51.556;9.946;2024-02-04T09:23:28;100093.09;;;8.78;100.00
85113;BME280;75461;51.556;9.946;2024-02-04T09:25:53;100088.06;;;8.75;100.00
85113;BME280;75461;51.556;9.946;2024-02-04T09:28:18;100094.31;;;8.73;100.00
85113;BME280;75461;51.556;9.946;2024-02-04T09:30:44;100093.28;;;8.75;100.00
85113;BME280;75461;51.556;9.946;2024-02-04T09:33:09;100094.13;;;8.76;100.00
85113;BME280;75461;51.556;9.946;2024-02-04T09:35:35;100092.34;;;8.76;100.00
85113;BME280;75461;51.556;9.946;2024-02-04T09:38:00;100086.00;;;8.80;100.00
85113;BME280;75461;51.556;9.946;2024-02-04T09:40:26;100094.25;;;8.88;100.00
85113;BME280;75461;51.556;9.946;2024-02-04T09:42:51;100084.44;;;8.92;100.00
85113;BME280;75461;51.556;9.946;2024-02-04T09:45:17;100076.56;;;8.92;100.00
85113;BME280;75461;51.556;9.946;2024-02-04T09:47:44;100081.69;;;8.94;100.00
85113;BME280;75461;51.556;9.946;2024-02-04T09:50:10;100074.50;;;8.97;100.00
85113;BME280;75461;51.556;9.946;2024-02-04T09:52:40;100063.00;;;9.00;100.00
85113;BME280;75461;51.556;9.946;2024-02-04T09:55:09;100070.69;;;9.03;100.00
85113;BME280;75461;51.556;9.946;2024-02-04T09:57:35;100070.97;;;8.98;100.00
85113;BME280;75461;51.556;9.946;2024-02-04T10:00:03;100064.69;;;9.01;100.00
85113;BME280;75461;51.556;9.946;2024-02-04T10:02:30;100053.94;;;9.05;100.00
85113;BME280;75461;51.556;9.946;2024-02-04T10:04:56;100054.78;;;9.06;100.00
85113;BME280;75461;51.556;9.946;2024-02-04T10:07:21;100070.19;;;9.10;100.00
85113;BME280;75461;51.556;9.946;2024-02-04T10:09:46;100085.44;;;9.04;100.00
85113;BME280;75461;51.556;9.946;2024-02-04T10:12:12;100099.66;;;9.00;100.00
85113;BME280;75461;51.556;9.946;2024-02-04T10:14:37;100094.41;;;8.85;100.00
85113;BME280;75461;51.556;9.946;2024-02-04T10:17:03;100097.41;;;8.79;100.00
85113;BME280;75461;51.556;9.946;2024-02-04T10:19:30;100096.66;;;8.77;100.00
85113;BME280;75461;51.556;9.946;2024-02-04T10:21:59;100070.31;;;8.80;100.00
85113;BME280;75461;51.556;9.946;2024-02-04T10:24:25;100078.50;;;8.74;100.00
85113;BME280;75461;51.556;9.946;2024-02-04T10:26:50;100072.44;;;8.74;100.00
85113;BME280;75461;51.556;9.946;2024-02-04T10:29:18;100075.00;;;8.75;100.00
85113;BME280;75461;51.556;9.946;2024-02-04T10:31:43;100086.06;;;8.64;100.00
85113;BME280;75461;51.556;9.946;2024-02-04T10:34:08;100100.34;;;8.59;100.00
85113;BME280;75461;51.556;9.946;2024-02-04T10:36:34;100118.34;;;8.49;100.00
85113;BME280;75461;51.556;9.946;2024-02-04T10:38:59;100092.31;;;8.32;100.00
85113;BME280;75461;51.556;9.946;2024-02-04T10:41:25;100095.03;;;8.30;100.00
85113;BME280;75461;51.556;9.946;2024-02-04T10:43:52;100099.34;;;8.31;100.00
85113;BME280;75461;51.556;9.946;2024-02-04T10:46:19;100087.22;;;8.30;100.00
85113;BME280;75461;51.556;9.946;2024-02-04T10:48:56;100097.72;;;8.29;100.00
85113;BME280;75461;51.556;9.946;2024-02-04T10:51:26;100094.94;;;8.32;100.00
85113;BME280;75461;51.556;9.946;2024-02-04T10:53:54;100096.38;;;8.37;100.00
85113;BME280;75461;51.556;9.946;2024-02-04T10:56:32;100084.53;;;8.46;100.00
85113;BME280;75461;51.556;9.946;2024-02-04T10:59:01;100087.16;;;8.46;100.00
85113;BME280;75461;51.556;9.946;2024-02-04T11:01:29;100075.69;;;8.49;100.00
85113;BME280;75461;51.556;9.946;2024-02-04T11:03:55;100091.28;;;8.50;100.00
85113;BME280;75461;51.556;9.946;2024-02-04T11:06:23;100079.44;;;8.59;100.00
85113;BME280;75461;51.556;9.946;2024-02-04T11:08:50;100081.19;;;8.58;100.00
85113;BME280;75461;51.556;9.946;2024-02-04T11:11:16;100067.22;;;8.59;100.00
85113;BME280;75461;51.556;9.946;2024-02-04T11:13:43;100062.72;;;8.61;100.00
85113;BME280;75461;51.556;9.946;2024-02-04T11:17:02;100058.25;;;8.63;100.00
85113;BME280;75461;51.556;9.946;2024-02-04T11:22:21;100056.69;;;8.75;100.00
85113;BME280;75461;51.556;9.946;2024-02-04T11:25:20;100047.25;;;8.73;100.00
85113;BME280;75461;51.556;9.946;2024-02-04T11:27:52;100048.34;;;8.83;100.00
85113;BME280;75461;51.556;9.946;2024-02-04T11:30:17;100037.13;;;8.81;99.85
85113;BME280;75461;51.556;9.946;2024-02-04T11:32:44;100035.34;;;8.81;100.00
85113;BME280;75461;51.556;9.946;2024-02-04T11:35:10;100026.41;;;8.85;98.44
85113;BME280;75461;51.556;9.946;2024-02-04T11:37:37;100023.41;;;8.92;99.81
85113;BME280;75461;51.556;9.946;2024-02-04T11:40:03;100027.78;;;8.91;100.00
85113;BME280;75461;51.556;9.946;2024-02-04T11:42:33;100028.91;;;8.87;99.84
85113;BME280;75461;51.556;9.946;2024-02-04T11:45:08;100026.03;;;8.92;99.61
85113;BME280;75461;51.556;9.946;2024-02-04T11:47:34;100031.06;;;8.95;99.21
85113;BME280;75461;51.556;9.946;2024-02-04T11:50:00;100024.91;;;8.96;99.19
85113;BME280;75461;51.556;9.946;2024-02-04T11:52:27;100016.56;;;9.03;99.69
85113;BME280;75461;51.556;9.946;2024-02-04T11:54:53;100009.75;;;9.01;99.83
85113;BME280;75461;51.556;9.946;2024-02-04T11:57:19;100020.66;;;9.07;99.63
85113;BME280;75461;51.556;9.946;2024-02-04T11:59:45;100024.34;;;9.05;100.00
85113;BME280;75461;51.556;9.946;2024-02-04T12:02:11;100007.31;;;8.98;99.85
85113;BME280;75461;51.556;9.946;2024-02-04T12:04:37;100007.78;;;9.04;100.00
85113;BME280;75461;51.556;9.946;2024-02-04T12:07:04;100011.06;;;9.08;100.00
85113;BME280;75461;51.556;9.946;2024-02-04T12:09:30;100019.75;;;9.08;97.61
85113;BME280;75461;51.556;9.946;2024-02-04T12:11:57;99994.31;;;9.10;98.14
85113;BME280;75461;51.556;9.946;2024-02-04T12:14:22;100007.19;;;9.14;96.66
85113;BME280;75461;51.556;9.946;2024-02-04T12:16:48;100006.66;;;9.08;97.36
85113;BME280;75461;51.556;9.946;2024-02-04T12:19:13;100001.69;;;9.04;100.00
85113;BME280;75461;51.556;9.946;2024-02-04T12:21:38;100016.69;;;9.02;98.87
85113;BME280;75461;51.556;9.946;2024-02-04T12:24:04;100008.38;;;8.95;99.90
85113;BME280;75461;51.556;9.946;2024-02-04T12:26:30;100021.53;;;8.94;100.00
85113;BME280;75461;51.556;9.946;2024-02-04T12:28:56;100005.19;;;8.90;100.00
85113;BME280;75461;51.556;9.946;2024-02-04T12:31:23;100004.69;;;8.98;99.65
85113;BME280;75461;51.556;9.946;2024-02-04T12:33:57;100000.53;;;8.95;99.30
85113;BME280;75461;51.556;9.946;2024-02-04T12:36:27;100000.97;;;9.02;98.58
85113;BME280;75461;51.556;9.946;2024-02-04T12:38:57;99992.09;;;9.04;98.72
85113;BME280;75461;51.556;9.946;2024-02-04T12:41:23;99989.06;;;9.10;98.48
85113;BME280;75461;51.556;9.946;2024-02-04T12:43:50;100004.13;;;9.07;97.21
85113;BME280;75461;51.556;9.946;2024-02-04T12:46:16;100007.22;;;8.99;97.50
85113;BME280;75461;51.556;9.946;2024-02-04T12:48:42;100018.84;;;8.95;100.00
85113;BME280;75461;51.556;9.946;2024-02-04T12:51:07;100022.97;;;8.85;100.00
85113;BME280;75461;51.556;9.946;2024-02-04T12:53:33;100014.06;;;8.73;100.00
85113;BME280;75461;51.556;9.946;2024-02-04T12:55:58;100014.84;;;8.75;100.00